createdAt,value
2019-04-25T00:00:22.125Z,47.05
2019-04-25T00:01:31.836Z,46.90
2019-04-25T00:02:36.720Z,46.99
2019-04-25T00:03:42.562Z,47.06
2019-04-25T00:04:46.779Z,46.88
2019-04-25T00:05:52.200Z,47.15
2019-04-25T00:06:55.253Z,47.09
2019-04-25T00:07:57.541Z,47.01
2019-04-25T00:09:01.831Z,46.91
2019-04-25T00:10:07.369Z,47.11
2019-04-25T00:11:11.686Z,47.03
2019-04-25T00:12:14.503Z,47.07
2019-04-25T00:13:16.555Z,47.15
2019-04-25T00:14:19.333Z,46.96
2019-04-25T00:15:22.416Z,47.15
2019-04-25T00:16:25.756Z,46.80
2019-04-25T00:17:29.348Z,46.70
2019-04-25T00:18:31.925Z,46.91
2019-04-25T00:19:34.537Z,46.88
2019-04-25T00:20:39.243Z,46.97
2019-04-25T00:21:59.635Z,46.95
2019-04-25T00:23:04.344Z,47.23
2019-04-25T00:24:21.852Z,47.18
2019-04-25T00:25:32.958Z,47.31
2019-04-25T00:26:44.436Z,47.27
2019-04-25T00:27:48.600Z,47.07
2019-04-25T00:28:52.456Z,47.17
2019-04-25T00:29:56.036Z,46.90
2019-04-25T00:30:58.514Z,47.19
2019-04-25T00:32:01.845Z,47.58
2019-04-25T00:33:04.404Z,47.68
2019-04-25T00:34:08.102Z,47.76
2019-04-25T00:35:11.790Z,47.46
2019-04-25T00:36:14.248Z,47.28
2019-04-25T00:37:15.914Z,47.45
2019-04-25T00:38:18.102Z,47.00
2019-04-25T00:39:21.754Z,47.06
2019-04-25T00:40:23.976Z,47.04
2019-04-25T00:41:26.282Z,47.04
2019-04-25T00:42:28.586Z,47.39
2019-04-25T00:43:32.332Z,47.28
2019-04-25T00:44:34.609Z,47.45
2019-04-25T00:45:37.151Z,47.52
2019-04-25T00:46:39.695Z,47.33
2019-04-25T00:47:43.861Z,47.42
2019-04-25T00:48:47.771Z,47.21
2019-04-25T00:49:50.173Z,46.95
2019-04-25T00:50:54.548Z,46.92
2019-04-25T00:51:57.079Z,47.25
2019-04-25T00:53:00.930Z,47.06
2019-04-25T00:54:03.822Z,47.26
2019-04-25T00:55:05.753Z,47.36
2019-04-25T00:56:07.905Z,47.29
2019-04-25T00:57:12.121Z,47.41
2019-04-25T00:58:19.007Z,47.41
2019-04-25T00:59:26.253Z,47.40
2019-04-25T01:00:37.725Z,47.45
2019-04-25T01:01:46.490Z,47.30
2019-04-25T01:02:53.354Z,47.53
2019-04-25T01:03:55.919Z,47.56
2019-04-25T01:04:58.293Z,47.46
2019-04-25T01:06:03.360Z,47.43
2019-04-25T01:07:04.327Z,47.59
2019-04-25T01:08:07.195Z,47.59
2019-04-25T01:09:14.672Z,47.48
2019-04-25T01:10:17.049Z,47.61
2019-04-25T01:11:19.501Z,47.36
2019-04-25T01:12:22.218Z,47.26
2019-04-25T01:13:24.529Z,47.33
2019-04-25T01:14:27.419Z,47.09
2019-04-25T01:15:31.435Z,47.10
2019-04-25T01:16:33.320Z,47.40
2019-04-25T01:17:36.023Z,47.48
2019-04-25T01:18:39.382Z,47.75
2019-04-25T01:19:41.689Z,47.41
2019-04-25T01:20:45.442Z,47.78
2019-04-25T01:21:47.604Z,47.55
2019-04-25T01:22:50.012Z,47.48
2019-04-25T01:23:54.416Z,47.44
2019-04-25T01:24:57.020Z,47.52
2019-04-25T01:25:59.348Z,47.54
2019-04-25T01:27:03.351Z,47.52
2019-04-25T01:28:06.756Z,47.88
2019-04-25T01:29:09.907Z,48.00
2019-04-25T01:30:14.076Z,47.91
2019-04-25T01:31:18.230Z,48.04
2019-04-25T01:32:23.770Z,48.05
2019-04-25T01:33:26.524Z,47.88
2019-04-25T01:34:36.804Z,47.99
2019-04-25T01:35:54.817Z,47.98
2019-04-25T01:36:59.712Z,47.94
2019-04-25T01:38:20.483Z,47.92
2019-04-25T01:39:39.855Z,47.84
2019-04-25T01:40:48.518Z,48.13
2019-04-25T01:41:57.768Z,48.16
2019-04-25T01:43:04.553Z,47.88
2019-04-25T01:44:17.828Z,47.80
2019-04-25T01:45:23.924Z,47.88
2019-04-25T01:46:26.553Z,47.88
2019-04-25T01:47:28.871Z,48.08
2019-04-25T01:48:33.361Z,47.52
2019-04-25T01:49:36.177Z,48.05
2019-04-25T01:50:38.375Z,48.27
2019-04-25T01:51:41.065Z,48.42
2019-04-25T01:52:43.499Z,48.56
2019-04-25T01:53:45.891Z,48.51
2019-04-25T01:54:49.208Z,48.49
2019-04-25T01:56:00.591Z,48.60
2019-04-25T01:56:57.739Z,49.03
2019-04-25T01:58:00.230Z,49.03
2019-04-25T01:59:03.958Z,48.58
2019-04-25T02:00:10.547Z,48.76
2019-04-25T02:01:14.337Z,48.79
2019-04-25T02:02:18.879Z,48.71
2019-04-25T02:03:26.643Z,49.31
2019-04-25T02:04:27.180Z,49.28
2019-04-25T02:05:30.168Z,49.14
2019-04-25T02:06:33.474Z,49.34
2019-04-25T02:07:36.205Z,49.38
2019-04-25T02:08:38.559Z,49.50
2019-04-25T02:09:41.129Z,49.22
2019-04-25T02:10:46.952Z,49.66
2019-04-25T02:11:54.708Z,49.55
2019-04-25T02:12:59.904Z,49.27
2019-04-25T02:14:04.836Z,49.60
2019-04-25T02:15:07.340Z,49.41
2019-04-25T02:16:10.279Z,49.23
2019-04-25T02:17:14.155Z,49.73
2019-04-25T02:18:16.179Z,49.77
2019-04-25T02:19:19.423Z,49.76
2019-04-25T02:20:21.816Z,49.65
2019-04-25T02:21:24.516Z,49.91
2019-04-25T02:22:27.177Z,49.91
2019-04-25T02:23:30.097Z,49.85
2019-04-25T02:24:34.153Z,50.11
2019-04-25T02:25:36.483Z,50.06
2019-04-25T02:26:38.644Z,49.85
2019-04-25T02:27:41.293Z,50.42
2019-04-25T02:28:43.811Z,50.29
2019-04-25T02:29:46.664Z,50.64
2019-04-25T02:30:49.114Z,51.05
2019-04-25T02:31:54.664Z,50.64
2019-04-25T02:33:01.812Z,50.52
2019-04-25T02:34:01.179Z,50.20
2019-04-25T02:35:09.534Z,50.07
2019-04-25T02:36:10.050Z,50.27
2019-04-25T02:37:14.598Z,50.23
2019-04-25T02:38:17.060Z,50.27
2019-04-25T02:39:20.009Z,50.32
2019-04-25T02:40:23.961Z,50.20
2019-04-25T02:41:26.264Z,50.14
2019-04-25T02:42:28.945Z,49.84
2019-04-25T02:43:31.304Z,50.03
2019-04-25T02:44:35.435Z,50.14
2019-04-25T02:45:37.995Z,50.17
2019-04-25T02:46:51.840Z,50.83
2019-04-25T02:48:14.221Z,50.49
2019-04-25T02:49:39.434Z,49.71
2019-04-25T02:50:48.534Z,50.04
2019-04-25T02:51:56.129Z,50.32
2019-04-25T02:53:07.275Z,50.14
2019-04-25T02:54:09.773Z,50.30
2019-04-25T02:55:29.488Z,50.27
2019-04-25T02:56:30.289Z,50.79
2019-04-25T02:57:25.003Z,50.89
2019-04-25T02:58:27.544Z,50.64
2019-04-25T02:59:29.725Z,50.47
2019-04-25T03:00:47.798Z,50.54
2019-04-25T03:01:36.836Z,50.31
2019-04-25T03:02:39.381Z,50.02
2019-04-25T03:03:44.706Z,49.78
2019-04-25T03:04:47.008Z,49.39
2019-04-25T03:05:49.645Z,49.24
2019-04-25T03:06:55.167Z,49.38
2019-04-25T03:07:57.919Z,49.06
2019-04-25T03:09:02.024Z,50.03
2019-04-25T03:10:09.891Z,49.87
2019-04-25T03:11:14.826Z,50.22
2019-04-25T03:12:29.211Z,49.77
2019-04-25T03:13:21.325Z,49.75
2019-04-25T03:14:26.464Z,49.72
2019-04-25T03:15:28.234Z,50.02
2019-04-25T03:16:30.763Z,50.11
2019-04-25T03:17:34.335Z,50.08
2019-04-25T03:18:38.254Z,50.57
2019-04-25T03:19:59.882Z,50.37
2019-04-25T03:21:11.869Z,50.01
2019-04-25T03:22:15.345Z,50.03
2019-04-25T03:23:19.888Z,50.21
2019-04-25T03:24:22.110Z,50.44
2019-04-25T03:25:24.952Z,50.50
2019-04-25T03:26:37.982Z,50.79
2019-04-25T03:27:34.025Z,51.16
2019-04-25T03:28:36.813Z,51.90
2019-04-25T03:29:39.344Z,51.19
2019-04-25T03:30:44.744Z,51.15
2019-04-25T03:31:46.879Z,50.61
2019-04-25T03:32:51.518Z,50.63
2019-04-25T03:33:55.873Z,51.25
2019-04-25T03:34:57.561Z,51.15
2019-04-25T03:36:00.728Z,50.66
2019-04-25T03:37:05.587Z,50.75
2019-04-25T03:38:08.596Z,50.79
2019-04-25T03:39:11.179Z,50.68
2019-04-25T03:40:14.057Z,50.48
2019-04-25T03:41:16.815Z,50.81
2019-04-25T03:42:18.727Z,50.56
2019-04-25T03:43:23.178Z,51.04
2019-04-25T03:44:26.087Z,51.06
2019-04-25T03:45:30.199Z,50.53
2019-04-25T03:46:33.900Z,50.29
2019-04-25T03:47:36.539Z,50.31
2019-04-25T03:48:39.264Z,49.35
2019-04-25T03:49:43.335Z,49.38
2019-04-25T03:50:46.241Z,49.52
2019-04-25T03:51:48.460Z,49.67
2019-04-25T03:52:50.613Z,50.37
2019-04-25T03:53:53.566Z,49.65
2019-04-25T03:54:56.828Z,49.55
2019-04-25T03:55:59.369Z,49.15
2019-04-25T03:57:04.763Z,49.12
2019-04-25T03:58:10.123Z,48.99
2019-04-25T03:59:10.618Z,49.43
2019-04-25T04:00:14.677Z,49.29
2019-04-25T04:01:17.232Z,49.60
2019-04-25T04:02:19.647Z,49.25
2019-04-25T04:03:21.337Z,49.17
2019-04-25T04:04:23.841Z,49.47
2019-04-25T04:05:28.866Z,49.34
2019-04-25T04:06:31.639Z,49.52
2019-04-25T04:07:33.762Z,48.43
2019-04-25T04:08:36.073Z,48.38
2019-04-25T04:09:38.416Z,48.07
2019-04-25T04:10:40.277Z,47.74
2019-04-25T04:11:43.501Z,47.58
2019-04-25T04:12:45.409Z,47.64
2019-04-25T04:13:47.887Z,46.59
2019-04-25T04:14:50.012Z,46.14
2019-04-25T04:15:54.440Z,46.02
2019-04-25T04:17:15.812Z,46.56
2019-04-25T04:18:20.502Z,46.22
2019-04-25T04:19:24.016Z,45.52
2019-04-25T04:20:26.771Z,45.24
2019-04-25T04:21:31.144Z,45.08
2019-04-25T04:22:34.136Z,45.20
2019-04-25T04:23:43.021Z,44.92
2019-04-25T04:24:47.552Z,44.58
2019-04-25T04:25:50.198Z,45.12
2019-04-25T04:27:08.789Z,44.46
2019-04-25T04:28:11.824Z,45.01
2019-04-25T04:29:15.189Z,44.71
2019-04-25T04:30:17.865Z,44.63
2019-04-25T04:31:20.050Z,45.02
2019-04-25T04:32:24.105Z,45.35
2019-04-25T04:33:32.277Z,44.85
2019-04-25T04:34:33.760Z,44.77
2019-04-25T04:35:36.475Z,44.79
2019-04-25T04:36:38.606Z,44.23
2019-04-25T04:37:41.237Z,44.30
2019-04-25T04:38:44.316Z,43.85
2019-04-25T04:39:46.823Z,44.36
2019-04-25T04:40:49.571Z,44.13
2019-04-25T04:41:51.625Z,44.21
2019-04-25T04:42:54.033Z,43.99
2019-04-25T04:43:56.359Z,44.85
2019-04-25T04:44:59.555Z,44.33
2019-04-25T04:46:01.654Z,44.92
2019-04-25T04:47:05.727Z,44.32
2019-04-25T04:48:08.683Z,45.01
2019-04-25T04:49:10.809Z,45.11
2019-04-25T04:50:14.481Z,44.89
2019-04-25T04:51:18.751Z,45.55
2019-04-25T04:52:25.807Z,45.89
2019-04-25T04:53:28.111Z,45.58
2019-04-25T04:54:30.357Z,45.78
2019-04-25T04:55:34.367Z,46.03
2019-04-25T04:56:36.927Z,45.47
2019-04-25T04:57:39.111Z,45.77
2019-04-25T04:58:43.194Z,45.46
2019-04-25T04:59:45.713Z,45.54
2019-04-25T05:00:49.060Z,45.02
2019-04-25T05:01:56.098Z,45.54
2019-04-25T05:03:14.597Z,45.08
2019-04-25T05:04:19.093Z,45.55
2019-04-25T05:05:21.329Z,44.84
2019-04-25T05:06:25.783Z,44.83
2019-04-25T05:07:37.394Z,44.82
2019-04-25T05:08:43.467Z,44.85
2019-04-25T05:09:45.983Z,44.58
2019-04-25T05:10:48.642Z,44.33
2019-04-25T05:11:51.161Z,44.18
2019-04-25T05:12:54.703Z,44.03
2019-04-25T05:13:57.508Z,44.04
2019-04-25T05:15:00.068Z,44.06
2019-04-25T05:16:03.180Z,44.30
2019-04-25T05:17:05.880Z,44.14
2019-04-25T05:18:08.514Z,44.41
2019-04-25T05:19:11.538Z,44.34
2019-04-25T05:20:16.390Z,44.55
2019-04-25T05:21:22.578Z,44.62
2019-04-25T05:22:24.864Z,44.67
2019-04-25T05:23:28.503Z,45.58
2019-04-25T05:24:33.921Z,45.86
2019-04-25T05:25:37.101Z,45.68
2019-04-25T05:26:39.654Z,46.08
2019-04-25T05:27:59.009Z,46.72
2019-04-25T05:28:46.209Z,46.94
2019-04-25T05:29:48.391Z,46.73
2019-04-25T05:30:54.814Z,46.10
2019-04-25T05:31:56.520Z,46.61
2019-04-25T05:32:58.822Z,46.78
2019-04-25T05:34:01.421Z,47.09
2019-04-25T05:35:06.870Z,46.95
2019-04-25T05:36:10.188Z,47.19
2019-04-25T05:37:14.355Z,47.49
2019-04-25T05:38:17.691Z,47.70
2019-04-25T05:39:20.423Z,47.90
2019-04-25T05:40:24.447Z,47.30
2019-04-25T05:41:33.750Z,47.69
2019-04-25T05:42:54.697Z,47.79
2019-04-25T05:43:57.447Z,47.30
2019-04-25T05:44:59.779Z,47.55
2019-04-25T05:46:03.408Z,47.11
2019-04-25T05:47:07.727Z,46.56
2019-04-25T05:48:10.202Z,46.77
2019-04-25T05:49:13.833Z,46.63
2019-04-25T05:50:16.500Z,47.27
2019-04-25T05:51:19.527Z,47.33
2019-04-25T05:52:25.164Z,47.33
2019-04-25T05:53:29.649Z,47.36
2019-04-25T05:54:33.990Z,46.75
2019-04-25T05:55:37.312Z,47.45
2019-04-25T05:56:40.713Z,47.69
2019-04-25T05:57:47.377Z,47.44
2019-04-25T05:58:47.782Z,47.79
2019-04-25T05:59:50.744Z,48.19
2019-04-25T06:00:55.524Z,47.85
2019-04-25T06:01:57.807Z,47.20
2019-04-25T06:03:00.065Z,47.67
2019-04-25T06:04:03.627Z,47.51
2019-04-25T06:05:06.902Z,47.59
2019-04-25T06:06:09.436Z,47.71
2019-04-25T06:07:11.566Z,48.11
2019-04-25T06:08:15.401Z,48.29
2019-04-25T06:09:17.699Z,47.83
2019-04-25T06:10:38.514Z,47.27
2019-04-25T06:11:43.757Z,47.36
2019-04-25T06:12:51.461Z,47.37
2019-04-25T06:13:56.102Z,47.28
2019-04-25T06:14:59.379Z,46.90
2019-04-25T06:16:06.097Z,47.74
2019-04-25T06:17:15.892Z,47.50
2019-04-25T06:18:21.208Z,47.08
2019-04-25T06:19:43.607Z,47.05
2019-04-25T06:20:46.109Z,47.25
2019-04-25T06:21:49.178Z,46.81
2019-04-25T06:22:53.447Z,46.81
2019-04-25T06:24:04.345Z,46.85
2019-04-25T06:25:12.798Z,47.38
2019-04-25T06:26:24.864Z,47.19
2019-04-25T06:27:23.911Z,47.59
2019-04-25T06:28:28.762Z,47.09
2019-04-25T06:29:34.709Z,46.95
2019-04-25T06:30:37.923Z,47.09
2019-04-25T06:31:39.872Z,47.16
2019-04-25T06:32:43.720Z,46.63
2019-04-25T06:33:46.784Z,46.64
2019-04-25T06:34:49.746Z,46.52
2019-04-25T06:35:55.042Z,46.10
2019-04-25T06:37:05.971Z,46.59
2019-04-25T06:38:08.268Z,46.23
2019-04-25T06:39:11.905Z,46.29
2019-04-25T06:40:15.449Z,46.04
2019-04-25T06:41:18.551Z,46.25
2019-04-25T06:42:22.509Z,46.19
2019-04-25T06:43:26.740Z,46.31
2019-04-25T06:44:48.072Z,45.65
2019-04-25T06:45:50.846Z,45.98
2019-04-25T06:47:03.186Z,45.96
2019-04-25T06:48:17.260Z,45.60
2019-04-25T06:49:27.889Z,45.55
2019-04-25T06:50:30.984Z,45.65
2019-04-25T06:51:48.220Z,45.51
2019-04-25T06:52:51.504Z,45.62
2019-04-25T06:53:54.065Z,45.35
2019-04-25T06:54:56.623Z,45.12
2019-04-25T06:55:59.520Z,45.48
2019-04-25T06:57:04.416Z,45.75
2019-04-25T06:58:11.726Z,45.62
2019-04-25T06:59:13.656Z,45.36
2019-04-25T07:00:18.970Z,45.52
2019-04-25T07:01:20.853Z,45.44
2019-04-25T07:02:25.412Z,45.06
2019-04-25T07:03:29.409Z,45.53
2019-04-25T07:04:34.552Z,45.39
2019-04-25T07:05:40.417Z,45.06
2019-04-25T07:06:43.780Z,45.29
2019-04-25T07:07:47.759Z,45.01
2019-04-25T07:08:50.355Z,44.58
2019-04-25T07:09:53.492Z,44.95
2019-04-25T07:10:56.310Z,44.71
2019-04-25T07:11:59.282Z,44.49
2019-04-25T07:13:01.828Z,43.84
2019-04-25T07:14:04.657Z,42.96
2019-04-25T07:15:09.933Z,44.18
2019-04-25T07:16:13.270Z,43.37
2019-04-25T07:17:16.298Z,42.70
2019-04-25T07:18:18.070Z,43.82
2019-04-25T07:19:21.007Z,42.81
2019-04-25T07:20:26.110Z,43.50
2019-04-25T07:21:28.136Z,43.33
2019-04-25T07:22:31.588Z,42.37
2019-04-25T07:23:35.838Z,42.47
2019-04-25T07:24:38.784Z,41.81
2019-04-25T07:25:44.546Z,41.51
2019-04-25T07:27:05.764Z,42.60
2019-04-25T07:28:07.905Z,42.48
2019-04-25T07:29:24.786Z,42.58
2019-04-25T07:30:43.850Z,42.73
2019-04-25T07:31:45.206Z,42.19
2019-04-25T07:32:54.081Z,42.31
2019-04-25T07:33:58.037Z,42.84
2019-04-25T07:35:01.104Z,42.87
2019-04-25T07:36:04.486Z,42.05
2019-04-25T07:37:07.504Z,41.39
2019-04-25T07:38:11.922Z,40.73
2019-04-25T07:39:15.454Z,41.51
2019-04-25T07:40:18.958Z,40.92
2019-04-25T07:41:24.118Z,40.98
2019-04-25T07:42:27.810Z,40.70
2019-04-25T07:43:32.298Z,40.84
2019-04-25T07:44:49.420Z,40.24
2019-04-25T07:45:41.385Z,40.21
2019-04-25T07:46:44.362Z,40.46
2019-04-25T07:47:47.014Z,40.22
2019-04-25T07:48:50.149Z,40.99
2019-04-25T07:49:54.201Z,41.18
2019-04-25T07:50:58.314Z,40.51
2019-04-25T07:52:00.467Z,40.11
2019-04-25T07:53:03.631Z,40.52
2019-04-25T07:54:08.358Z,39.83
2019-04-25T07:55:11.631Z,40.18
2019-04-25T07:56:15.299Z,40.24
2019-04-25T07:57:18.396Z,39.31
2019-04-25T07:58:20.388Z,39.58
2019-04-25T07:59:23.749Z,39.49
2019-04-25T08:00:27.544Z,38.93
2019-04-25T08:01:31.081Z,38.92
2019-04-25T08:02:34.994Z,40.07
2019-04-25T08:03:38.080Z,39.94
2019-04-25T08:04:42.043Z,39.32
2019-04-25T08:05:45.243Z,39.23
2019-04-25T08:06:47.685Z,39.29
2019-04-25T08:07:50.797Z,39.53
2019-04-25T08:08:54.989Z,39.60
2019-04-25T08:09:58.030Z,39.96
2019-04-25T08:11:06.269Z,39.30
2019-04-25T08:12:10.688Z,39.34
2019-04-25T08:13:13.745Z,39.71
2019-04-25T08:14:20.682Z,39.96
2019-04-25T08:15:24.823Z,40.17
2019-04-25T08:16:30.063Z,40.60
2019-04-25T08:17:53.979Z,39.29
2019-04-25T08:18:57.389Z,39.09
2019-04-25T08:20:01.286Z,38.65
2019-04-25T08:21:04.296Z,39.01
2019-04-25T08:22:06.852Z,39.51
2019-04-25T08:23:10.316Z,39.29
2019-04-25T08:24:14.012Z,40.21
2019-04-25T08:25:17.341Z,38.78
2019-04-25T08:26:20.402Z,38.64
2019-04-25T08:27:23.191Z,38.36
2019-04-25T08:28:26.096Z,38.36
2019-04-25T08:29:30.785Z,38.27
2019-04-25T08:30:36.270Z,38.92
2019-04-25T08:31:39.439Z,39.25
2019-04-25T08:32:43.952Z,39.47
2019-04-25T08:33:46.538Z,39.14
2019-04-25T08:34:49.091Z,38.34
2019-04-25T08:36:04.367Z,38.34
2019-04-25T08:36:56.782Z,38.11
2019-04-25T08:38:00.104Z,37.91
2019-04-25T08:39:04.734Z,38.06
2019-04-25T08:40:10.636Z,38.16
2019-04-25T08:41:14.095Z,37.94
2019-04-25T08:42:16.846Z,38.18
2019-04-25T08:43:20.235Z,38.16
2019-04-25T08:44:24.121Z,38.57
2019-04-25T08:45:27.458Z,38.48
2019-04-25T08:46:30.461Z,38.51
2019-04-25T08:47:34.809Z,37.96
2019-04-25T08:48:56.890Z,37.81
2019-04-25T08:50:03.536Z,38.80
2019-04-25T08:51:13.438Z,37.75
2019-04-25T08:52:16.305Z,37.65
2019-04-25T08:53:20.065Z,37.64
2019-04-25T08:54:25.536Z,37.45
2019-04-25T08:55:45.682Z,38.61
2019-04-25T08:56:48.929Z,37.74
2019-04-25T08:57:55.552Z,37.75
2019-04-25T08:59:06.219Z,37.74
2019-04-25T09:00:09.378Z,38.02
2019-04-25T09:01:23.467Z,38.14
2019-04-25T09:02:38.562Z,38.58
2019-04-25T09:03:44.373Z,38.78
2019-04-25T09:04:57.935Z,38.64
2019-04-25T09:06:01.197Z,38.33
2019-04-25T09:07:05.516Z,38.13
2019-04-25T09:08:08.909Z,37.97
2019-04-25T09:09:11.553Z,37.97
2019-04-25T09:10:15.134Z,37.69
2019-04-25T09:11:18.134Z,37.18
2019-04-25T09:12:20.386Z,37.19
2019-04-25T09:13:23.518Z,36.63
2019-04-25T09:14:26.666Z,36.92
2019-04-25T09:15:30.911Z,37.38
2019-04-25T09:16:35.396Z,37.31
2019-04-25T09:17:39.325Z,37.37
2019-04-25T09:18:43.985Z,37.08
2019-04-25T09:19:47.297Z,37.45
2019-04-25T09:20:49.560Z,37.17
2019-04-25T09:21:53.301Z,37.05
2019-04-25T09:22:55.818Z,37.42
2019-04-25T09:23:58.680Z,37.14
2019-04-25T09:25:01.847Z,37.11
2019-04-25T09:26:05.908Z,37.21
2019-04-25T09:27:10.814Z,37.00
2019-04-25T09:28:14.240Z,37.07
2019-04-25T09:29:19.752Z,37.52
2019-04-25T09:30:23.985Z,36.86
2019-04-25T09:31:26.944Z,36.93
2019-04-25T09:32:29.980Z,36.96
2019-04-25T09:33:35.156Z,36.72
2019-04-25T09:34:38.118Z,36.90
2019-04-25T09:35:41.643Z,36.45
2019-04-25T09:36:45.064Z,37.77
2019-04-25T09:37:49.107Z,37.58
2019-04-25T09:38:54.066Z,37.49
2019-04-25T09:40:04.497Z,37.38
2019-04-25T09:41:07.619Z,37.44
2019-04-25T09:42:10.462Z,37.29
2019-04-25T09:43:14.351Z,36.85
2019-04-25T09:44:18.584Z,36.68
2019-04-25T09:45:37.961Z,36.79
2019-04-25T09:46:41.837Z,36.78
2019-04-25T09:47:46.623Z,36.13
2019-04-25T09:48:57.688Z,36.35
2019-04-25T09:50:01.666Z,36.44
2019-04-25T09:51:07.570Z,36.15
2019-04-25T09:52:13.417Z,35.86
2019-04-25T09:53:23.323Z,35.71
2019-04-25T09:54:21.302Z,35.91
2019-04-25T09:55:27.460Z,35.74
2019-04-25T09:56:45.150Z,35.74
2019-04-25T09:57:56.163Z,36.00
2019-04-25T09:59:00.741Z,36.07
2019-04-25T10:00:05.746Z,36.28
2019-04-25T10:01:13.878Z,36.08
2019-04-25T10:02:16.680Z,35.89
2019-04-25T10:03:19.520Z,36.00
2019-04-25T10:04:23.073Z,36.15
2019-04-25T10:05:25.867Z,36.43
2019-04-25T10:06:28.463Z,36.41
2019-04-25T10:07:31.305Z,36.40
2019-04-25T10:08:34.343Z,36.11
2019-04-25T10:09:36.669Z,36.37
2019-04-25T10:10:40.501Z,36.25
2019-04-25T10:11:45.069Z,36.23
2019-04-25T10:12:48.478Z,36.10
2019-04-25T10:14:13.517Z,35.80
2019-04-25T10:15:24.048Z,35.80
2019-04-25T10:16:26.455Z,35.48
2019-04-25T10:17:28.872Z,36.12
2019-04-25T10:18:33.633Z,36.09
2019-04-25T10:19:37.622Z,35.24
2019-04-25T10:20:41.183Z,35.68
2019-04-25T10:21:43.714Z,36.09
2019-04-25T10:22:46.612Z,35.88
2019-04-25T10:23:51.209Z,35.79
2019-04-25T10:25:00.271Z,35.93
2019-04-25T10:25:58.781Z,36.01
2019-04-25T10:27:03.624Z,36.33
2019-04-25T10:28:06.511Z,35.86
2019-04-25T10:29:09.820Z,35.00
2019-04-25T10:30:17.618Z,36.14
2019-04-25T10:31:18.656Z,35.37
2019-04-25T10:32:23.641Z,35.69
2019-04-25T10:33:26.300Z,35.88
2019-04-25T10:34:29.402Z,34.41
2019-04-25T10:35:40.858Z,35.77
2019-04-25T10:36:38.769Z,35.95
2019-04-25T10:37:41.037Z,36.36
2019-04-25T10:38:46.285Z,36.14
2019-04-25T10:39:48.956Z,36.22
2019-04-25T10:40:53.514Z,36.10
2019-04-25T10:41:57.603Z,35.94
2019-04-25T10:43:01.453Z,34.27
2019-04-25T10:44:05.288Z,35.17
2019-04-25T10:45:20.485Z,34.68
2019-04-25T10:46:14.143Z,34.97
2019-04-25T10:47:17.105Z,33.59
2019-04-25T10:48:20.813Z,33.81
2019-04-25T10:49:23.773Z,34.53
2019-04-25T10:50:26.735Z,35.12
2019-04-25T10:51:29.413Z,35.27
2019-04-25T10:52:33.769Z,35.33
2019-04-25T10:53:36.251Z,35.31
2019-04-25T10:54:39.720Z,35.11
2019-04-25T10:55:45.511Z,33.90
2019-04-25T10:56:48.423Z,34.31
2019-04-25T10:57:51.074Z,35.10
2019-04-25T10:58:54.932Z,35.08
2019-04-25T11:00:06.307Z,34.22
2019-04-25T11:01:01.640Z,34.84
2019-04-25T11:02:05.320Z,34.80
2019-04-25T11:03:10.756Z,34.92
2019-04-25T11:04:14.715Z,34.73
2019-04-25T11:05:17.661Z,34.47
2019-04-25T11:06:23.521Z,34.75
2019-04-25T11:07:26.628Z,34.96
2019-04-25T11:08:29.865Z,34.56
2019-04-25T11:09:34.285Z,33.45
2019-04-25T11:10:37.467Z,33.25
2019-04-25T11:11:43.133Z,33.30
2019-04-25T11:12:46.993Z,34.13
2019-04-25T11:13:49.975Z,34.30
2019-04-25T11:14:53.317Z,34.15
2019-04-25T11:15:57.650Z,34.56
2019-04-25T11:17:01.686Z,34.48
2019-04-25T11:18:04.583Z,34.39
2019-04-25T11:19:08.012Z,34.39
2019-04-25T11:20:26.426Z,34.48
2019-04-25T11:21:28.894Z,34.38
2019-04-25T11:22:34.120Z,34.21
2019-04-25T11:23:37.551Z,34.37
2019-04-25T11:24:41.631Z,34.46
2019-04-25T11:25:46.191Z,34.46
2019-04-25T11:26:51.328Z,34.40
2019-04-25T11:27:55.046Z,34.36
2019-04-25T11:28:58.638Z,34.11
2019-04-25T11:30:09.230Z,33.71
2019-04-25T11:31:09.312Z,33.79
2019-04-25T11:32:13.252Z,34.08
2019-04-25T11:33:17.946Z,33.83
2019-04-25T11:34:20.816Z,34.02
2019-04-25T11:35:24.163Z,34.09
2019-04-25T11:36:27.211Z,34.46
2019-04-25T11:37:31.568Z,34.42
2019-04-25T11:38:36.072Z,34.19
2019-04-25T11:39:50.415Z,34.08
2019-04-25T11:40:55.127Z,33.69
2019-04-25T11:41:59.145Z,34.24
2019-04-25T11:43:04.195Z,34.23
2019-04-25T11:44:07.111Z,34.18
2019-04-25T11:45:10.502Z,34.18
2019-04-25T11:46:14.084Z,34.49
2019-04-25T11:47:16.917Z,34.51
2019-04-25T11:48:19.167Z,34.28
2019-04-25T11:49:21.627Z,34.48
2019-04-25T11:50:25.873Z,34.45
2019-04-25T11:51:29.620Z,34.32
2019-04-25T11:52:33.627Z,34.34
2019-04-25T11:53:36.169Z,33.38
2019-04-25T11:54:38.345Z,33.77
2019-04-25T11:55:40.917Z,33.87
2019-04-25T11:56:45.935Z,33.91
2019-04-25T11:57:49.920Z,33.18
2019-04-25T11:58:54.199Z,33.10
2019-04-25T11:59:57.016Z,33.50
2019-04-25T12:00:59.761Z,33.11
2019-04-25T12:02:04.650Z,33.37
2019-04-25T12:03:08.166Z,33.32
2019-04-25T12:04:10.758Z,33.29
2019-04-25T12:05:14.922Z,33.26
2019-04-25T12:06:18.781Z,33.42
2019-04-25T12:07:20.775Z,32.78
2019-04-25T12:08:24.292Z,33.23
2019-04-25T12:09:26.631Z,33.25
2019-04-25T12:10:29.461Z,33.35
2019-04-25T12:11:34.075Z,33.75
2019-04-25T12:12:37.347Z,33.67
2019-04-25T12:13:40.233Z,33.50
2019-04-25T12:14:45.053Z,31.56
2019-04-25T12:15:47.351Z,33.06
2019-04-25T12:16:51.552Z,32.99
2019-04-25T12:17:54.985Z,33.69
2019-04-25T12:18:58.174Z,33.37
2019-04-25T12:20:00.476Z,33.30
2019-04-25T12:21:04.659Z,33.14
2019-04-25T12:22:08.253Z,33.04
2019-04-25T12:23:11.240Z,32.95
2019-04-25T12:24:13.883Z,33.06
2019-04-25T12:25:15.801Z,33.37
2019-04-25T12:26:20.249Z,32.60
2019-04-25T12:27:23.016Z,33.37
2019-04-25T12:28:27.263Z,33.61
2019-04-25T12:29:29.546Z,32.56
2019-04-25T12:30:39.816Z,33.14
2019-04-25T12:31:37.734Z,32.77
2019-04-25T12:32:40.945Z,32.62
2019-04-25T12:33:47.255Z,32.83
2019-04-25T12:34:48.157Z,32.23
2019-04-25T12:35:50.795Z,32.67
2019-04-25T12:36:54.420Z,32.87
2019-04-25T12:37:57.168Z,33.06
2019-04-25T12:39:01.094Z,33.20
2019-04-25T12:40:07.267Z,33.29
2019-04-25T12:41:10.070Z,33.19
2019-04-25T12:42:14.345Z,33.33
2019-04-25T12:43:17.166Z,33.30
2019-04-25T12:44:37.397Z,32.78
2019-04-25T12:45:41.150Z,32.95
2019-04-25T12:46:46.419Z,33.13
2019-04-25T12:47:54.743Z,33.17
2019-04-25T12:48:56.019Z,33.15
2019-04-25T12:49:58.498Z,33.12
2019-04-25T12:51:00.848Z,33.10
2019-04-25T12:52:03.066Z,33.03
2019-04-25T12:53:05.807Z,32.93
2019-04-25T12:54:07.522Z,32.75
2019-04-25T12:55:13.807Z,32.75
2019-04-25T12:56:17.049Z,32.93
2019-04-25T12:57:24.048Z,32.89
2019-04-25T12:58:26.605Z,33.01
2019-04-25T12:59:29.301Z,32.80
2019-04-25T13:00:34.103Z,31.71
2019-04-25T13:01:37.057Z,32.96
2019-04-25T13:02:39.237Z,32.84
2019-04-25T13:03:42.009Z,32.57
2019-04-25T13:04:44.804Z,32.57
2019-04-25T13:05:47.516Z,32.63
2019-04-25T13:06:50.446Z,32.65
2019-04-25T13:07:56.700Z,32.55
2019-04-25T13:08:57.503Z,32.27
2019-04-25T13:09:59.327Z,32.41
2019-04-25T13:11:07.894Z,32.52
2019-04-25T13:12:06.753Z,32.40
2019-04-25T13:13:09.265Z,32.46
2019-04-25T13:14:11.647Z,32.31
2019-04-25T13:15:14.233Z,32.11
2019-04-25T13:16:16.806Z,31.97
2019-04-25T13:17:19.640Z,32.08
2019-04-25T13:18:21.924Z,31.96
2019-04-25T13:19:26.332Z,30.46
2019-04-25T13:20:28.216Z,32.05
2019-04-25T13:21:30.674Z,32.03
2019-04-25T13:22:34.902Z,32.21
2019-04-25T13:23:37.487Z,32.39
2019-04-25T13:24:39.221Z,32.23
2019-04-25T13:25:41.718Z,32.27
2019-04-25T13:26:49.755Z,32.14
2019-04-25T13:27:57.582Z,32.17
2019-04-25T13:29:12.852Z,32.03
2019-04-25T13:30:21.656Z,31.98
2019-04-25T13:31:25.830Z,32.06
2019-04-25T13:32:30.926Z,32.07
2019-04-25T13:33:35.673Z,31.84
2019-04-25T13:34:48.572Z,31.97
2019-04-25T13:35:57.635Z,32.04
2019-04-25T13:37:01.026Z,31.66
2019-04-25T13:38:03.950Z,31.89
2019-04-25T13:39:10.806Z,31.99
2019-04-25T13:40:17.175Z,31.96
2019-04-25T13:41:20.634Z,31.97
2019-04-25T13:42:23.675Z,31.99
2019-04-25T13:43:25.991Z,32.01
2019-04-25T13:44:28.104Z,32.09
2019-04-25T13:45:30.410Z,32.11
2019-04-25T13:46:34.312Z,31.98
2019-04-25T13:47:37.336Z,31.96
2019-04-25T13:48:39.563Z,31.96
2019-04-25T13:49:41.491Z,31.80
2019-04-25T13:50:44.410Z,31.49